Time;durP1;ratioP1;P1;durP2;ratioP2;P2;SDS_P1;SDS_P2;PMS_P1;PMS_P2;Temp;Humidity;BMP_temperature;BMP_pressure;BME280_temperature;BME280_humidity;BME280_pressure;Samples;Min_cycle;Max_cycle;Signal;HPM_P1;HPM_P2
2022/09/16 00:02:17;;;;;;;3.92;3.42;;;25.20;55.00;;;;;;5033603;28;20049;-66
2022/09/16 00:04:42;;;;;;;4.55;3.58;;;25.20;55.00;;;;;;5008207;28;20120;-66
2022/09/16 00:07:08;;;;;;;4.40;3.75;;;25.20;55.00;;;;;;5033966;28;20025;-67
2022/09/16 00:09:37;;;;;;;4.47;3.63;;;25.10;55.00;;;;;;5033831;28;20030;-67
2022/09/16 00:12:03;;;;;;;4.70;3.80;;;25.10;55.00;;;;;;5033879;28;20028;-67
2022/09/16 00:14:29;;;;;;;4.07;3.33;;;25.10;55.00;;;;;;5015961;28;20050;-67
2022/09/16 00:16:54;;;;;;;4.07;3.67;;;25.10;55.00;;;;;;5033759;28;20033;-66
2022/09/16 00:19:20;;;;;;;4.13;3.72;;;25.10;55.00;;;;;;5033654;28;20025;-66
2022/09/16 00:21:47;;;;;;;4.13;3.45;;;25.10;55.00;;;;;;5033769;28;20111;-66
2022/09/16 00:24:14;;;;;;;4.13;3.60;;;25.10;55.00;;;;;;5033722;28;20025;-66
2022/09/16 00:26:41;;;;;;;3.95;3.42;;;25.10;55.00;;;;;;5033621;28;20053;-66
2022/09/16 00:29:06;;;;;;;3.85;3.45;;;25.10;55.10;;;;;;5033254;28;20140;-66
2022/09/16 00:31:32;;;;;;;4.45;3.50;;;25.10;55.10;;;;;;5032793;28;20128;-66
2022/09/16 00:33:57;;;;;;;3.72;3.33;;;25.10;55.10;;;;;;5033581;28;20508;-67
2022/09/16 00:36:23;;;;;;;4.25;3.40;;;25.00;55.00;;;;;;5033562;28;20026;-66
2022/09/16 00:38:56;;;;;;;3.90;3.40;;;25.00;55.10;;;;;;5033256;28;20056;-66
2022/09/16 00:41:31;;;;;;;4.28;3.42;;;25.10;55.10;;;;;;5033371;28;20037;-68
2022/09/16 00:44:20;;;;;;;3.90;3.50;;;25.10;55.10;;;;;;5033320;28;20077;-67
2022/09/16 00:46:47;;;;;;;3.83;3.38;;;25.00;55.00;;;;;;5032910;28;20040;-67
2022/09/16 00:49:19;;;;;;;4.15;3.53;;;25.00;55.10;;;;;;5033057;28;20042;-67
2022/09/16 00:51:49;;;;;;;4.53;3.60;;;25.00;55.00;;;;;;5033138;28;20040;-67
2022/09/16 00:54:17;;;;;;;4.05;3.53;;;25.00;55.00;;;;;;5032464;28;20018;-68
2022/09/16 00:56:45;;;;;;;4.55;3.60;;;25.00;55.00;;;;;;5033026;28;20029;-67
2022/09/16 00:59:19;;;;;;;4.03;3.20;;;25.00;55.00;;;;;;5032965;28;20393;-67
2022/09/16 01:01:46;;;;;;;3.70;3.20;;;25.00;55.10;;;;;;5032412;28;20029;-67
2022/09/16 01:05:04;;;;;;;4.05;3.65;;;24.90;55.00;;;;;;5032994;28;20423;-67
2022/09/16 01:07:45;;;;;;;3.50;3.17;;;24.90;55.00;;;;;;5021383;28;20463;-68
2022/09/16 01:10:13;;;;;;;3.40;3.10;;;24.90;55.00;;;;;;5029975;28;20508;-66
2022/09/16 01:12:42;;;;;;;3.30;3.00;;;24.90;55.10;;;;;;5032766;28;20595;-68
2022/09/16 01:15:09;;;;;;;3.40;3.10;;;24.90;55.50;;;;;;5032636;28;20508;-66
2022/09/16 01:17:43;;;;;;;4.13;3.35;;;24.90;55.10;;;;;;5032053;28;20026;-67
2022/09/16 01:20:36;;;;;;;3.70;2.90;;;24.90;55.00;;;;;;5013757;28;20160;-68
2022/09/16 01:23:15;;;;;;;3.97;3.00;;;24.90;55.10;;;;;;4995506;28;20049;-68
2022/09/16 01:25:52;;;;;;;4.07;3.40;;;24.90;55.00;;;;;;5032527;28;20546;-66
2022/09/16 01:28:24;;;;;;;3.47;2.85;;;24.90;55.00;;;;;;5032313;28;20116;-66
2022/09/16 01:31:09;;;;;;;3.10;2.78;;;24.90;55.10;;;;;;5030306;28;20030;-66
2022/09/16 01:33:46;;;;;;;4.20;3.20;;;24.80;55.00;;;;;;5032349;28;20021;-66
2022/09/16 01:36:26;;;;;;;3.63;3.13;;;24.90;55.10;;;;;;5029940;28;20021;-66
2022/09/16 01:39:31;;;;;;;4.03;3.30;;;24.80;55.00;;;;;;5031444;28;20029;-66
2022/09/16 01:42:14;;;;;;;3.83;3.08;;;24.90;55.10;;;;;;5032071;28;20136;-67
2022/09/16 01:44:49;;;;;;;3.40;2.90;;;24.80;55.00;;;;;;5005004;28;20648;-67
2022/09/16 01:47:28;;;;;;;3.40;2.80;;;24.80;55.00;;;;;;5005928;28;20028;-67
2022/09/16 01:50:26;;;;;;;4.18;3.55;;;24.80;55.00;;;;;;5031631;28;20432;-67
2022/09/16 01:52:54;;;;;;;3.75;3.13;;;24.80;55.00;;;;;;4977594;28;20030;-67
2022/09/16 01:55:35;;;;;;;3.60;3.00;;;24.80;55.00;;;;;;5031783;28;20026;-67
2022/09/16 01:58:07;;;;;;;3.63;2.88;;;24.80;55.10;;;;;;5031490;28;20040;-67
2022/09/16 02:00:33;;;;;;;3.50;2.90;;;24.80;55.60;;;;;;5030537;28;20050;-67
2022/09/16 02:03:10;;;;;;;3.50;3.00;;;24.80;55.10;;;;;;5031734;28;20099;-67
2022/09/16 02:05:48;;;;;;;4.10;3.13;;;24.80;55.10;;;;;;5030881;28;20100;-67
2022/09/16 02:08:38;;;;;;;3.17;2.65;;;24.80;55.10;;;;;;5031263;28;20405;-68
2022/09/16 02:11:07;;;;;;;3.28;2.85;;;24.80;55.10;;;;;;5031431;28;20028;-66
2022/09/16 02:13:38;;;;;;;3.85;3.00;;;24.80;55.10;;;;;;5029541;28;20034;-67
2022/09/16 02:16:25;;;;;;;3.30;2.75;;;24.70;55.10;;;;;;5031145;28;20444;-66
2022/09/16 02:18:56;;;;;;;3.15;2.72;;;24.70;55.10;;;;;;4981061;28;20095;-67
2022/09/16 02:21:24;;;;;;;3.10;2.80;;;24.70;55.10;;;;;;5031099;28;20030;-67
2022/09/16 02:23:55;;;;;;;3.60;2.57;;;24.70;55.10;;;;;;5031300;28;20100;-67
2022/09/16 02:26:26;;;;;;;3.53;2.70;;;24.70;55.10;;;;;;5030616;28;20040;-67
2022/09/16 02:28:53;;;;;;;2.92;2.63;;;24.70;55.10;;;;;;5030691;28;20064;-67
2022/09/16 02:31:30;;;;;;;3.00;2.58;;;24.70;55.10;;;;;;5030712;28;20462;-67
2022/09/16 02:34:02;;;;;;;3.47;2.90;;;24.70;55.60;;;;;;5031165;28;20021;-67
2022/09/16 02:36:30;;;;;;;3.13;2.63;;;24.70;55.10;;;;;;5031005;28;20496;-68
2022/09/16 02:39:03;;;;;;;3.33;2.72;;;24.70;55.10;;;;;;5004553;28;20029;-67
2022/09/16 02:41:29;;;;;;;3.20;2.63;;;24.70;55.10;;;;;;5030498;28;20033;-66
2022/09/16 02:43:54;;;;;;;3.22;2.42;;;24.70;55.10;;;;;;5031036;28;20032;-67
2022/09/16 02:46:39;;;;;;;3.50;2.60;;;24.70;55.10;;;;;;5030468;28;20116;-66
2022/09/16 02:49:39;;;;;;;3.28;2.70;;;24.70;55.10;;;;;;5030797;28;20451;-66
2022/09/16 02:52:27;;;;;;;3.40;2.70;;;24.70;55.20;;;;;;5028663;28;20373;-66
2022/09/16 02:54:53;;;;;;;3.40;2.57;;;24.60;55.10;;;;;;5030800;28;20030;-66
2022/09/16 02:57:19;;;;;;;3.42;2.83;;;24.60;55.10;;;;;;5030846;28;20401;-66
2022/09/16 02:59:45;;;;;;;3.13;2.47;;;24.60;55.10;;;;;;5005590;28;20503;-66
2022/09/16 03:02:11;;;;;;;3.08;2.67;;;24.60;55.70;;;;;;5030220;28;20037;-66
2022/09/16 03:04:37;;;;;;;3.30;2.80;;;24.60;55.10;;;;;;5030742;28;20155;-66
2022/09/16 03:07:06;;;;;;;2.97;2.55;;;24.60;55.60;;;;;;5030831;28;20108;-66
2022/09/16 03:09:33;;;;;;;;;;;24.60;55.60;;;;;;5031038;28;20120;-67
2022/09/16 03:12:24;;;;;;;3.00;2.40;;;24.60;55.10;;;;;;5030735;28;19913;-67
2022/09/16 03:15:04;;;;;;;2.70;2.30;;;24.60;55.10;;;;;;5030441;28;20052;-67
2022/09/16 03:17:45;;;;;;;3.28;2.70;;;24.60;55.10;;;;;;5029855;28;20075;-67
2022/09/16 03:20:29;;;;;;;3.53;2.50;;;24.60;55.10;;;;;;5030633;28;20026;-67
2022/09/16 03:23:10;;;;;;;3.22;2.67;;;24.60;55.10;;;;;;5012601;28;20029;-67
2022/09/16 03:25:47;;;;;;;2.78;2.15;;;24.50;55.10;;;;;;5030446;28;20345;-67
2022/09/16 03:28:25;;;;;;;2.80;2.45;;;24.50;55.20;;;;;;5029614;28;20539;-67
2022/09/16 03:31:03;;;;;;;2.88;2.38;;;24.50;55.20;;;;;;5004490;28;20501;-67
2022/09/16 03:33:56;;;;;;;3.30;2.70;;;24.50;55.20;;;;;;5029275;28;20539;-67
2022/09/16 03:36:28;;;;;;;3.08;2.55;;;24.50;55.20;;;;;;5029828;28;20043;-67
2022/09/16 03:38:55;;;;;;;3.20;2.50;;;24.50;55.20;;;;;;5030160;28;20026;-67
2022/09/16 03:41:21;;;;;;;3.20;2.70;;;24.50;55.20;;;;;;5030387;28;20386;-67
2022/09/16 03:43:55;;;;;;;2.78;2.30;;;24.50;55.20;;;;;;5030377;28;20108;-67
2022/09/16 03:46:21;;;;;;;3.10;2.50;;;24.50;55.20;;;;;;5030395;28;20505;-67
2022/09/16 03:48:46;;;;;;;2.95;2.40;;;24.50;55.20;;;;;;5028745;28;20112;-67
2022/09/16 03:51:13;;;;;;;2.95;2.38;;;24.50;55.20;;;;;;5019086;28;20025;-67
2022/09/16 03:53:38;;;;;;;3.28;2.50;;;24.50;55.30;;;;;;5012065;28;20029;-68
2022/09/16 03:56:04;;;;;;;2.92;2.53;;;24.40;55.70;;;;;;5030337;28;20127;-67
2022/09/16 03:58:30;;;;;;;3.05;2.47;;;24.40;55.20;;;;;;5030044;28;20466;-67
2022/09/16 04:00:55;;;;;;;3.67;2.35;;;24.40;55.20;;;;;;5028944;28;20503;-66
2022/09/16 04:03:21;;;;;;;3.00;2.50;;;24.50;55.20;;;;;;5032008;28;20033;-66
2022/09/16 04:05:55;;;;;;;2.72;2.20;;;24.40;55.20;;;;;;5007656;28;20088;-67
2022/09/16 04:08:21;;;;;;;2.80;2.17;;;24.40;55.20;;;;;;5033632;28;20045;-67
2022/09/16 04:10:58;;;;;;;2.50;1.95;;;24.40;55.30;;;;;;5033735;28;20025;-67
2022/09/16 04:13:24;;;;;;;3.03;2.20;;;24.40;55.30;;;;;;5033107;28;20473;-67
2022/09/16 04:15:50;;;;;;;2.75;2.10;;;24.40;55.30;;;;;;5033631;28;20109;-67
2022/09/16 04:18:16;;;;;;;2.60;2.20;;;24.40;55.30;;;;;;5015911;28;20022;-68
2022/09/16 04:20:41;;;;;;;2.58;2.10;;;24.40;55.30;;;;;;5016003;28;20029;-68
2022/09/16 04:23:08;;;;;;;2.35;2.10;;;24.40;55.30;;;;;;5033966;28;20057;-68
2022/09/16 04:25:34;;;;;;;2.60;2.10;;;24.40;55.80;;;;;;5033581;28;20029;-67
2022/09/16 04:28:00;;;;;;;2.90;2.33;;;24.40;55.30;;;;;;5033693;28;20025;-67
2022/09/16 04:30:26;;;;;;;2.85;2.20;;;24.30;55.30;;;;;;5033007;28;20072;-67
2022/09/16 04:32:53;;;;;;;2.80;2.30;;;24.40;55.30;;;;;;5033343;28;20397;-67
2022/09/16 04:35:18;;;;;;;2.70;2.22;;;24.40;55.40;;;;;;5033413;28;20068;-67
2022/09/16 04:37:45;;;;;;;2.90;2.20;;;24.30;55.30;;;;;;5033178;28;20025;-67
2022/09/16 04:40:10;;;;;;;2.47;2.08;;;24.30;55.30;;;;;;5033260;28;20029;-68
2022/09/16 04:42:36;;;;;;;2.38;1.90;;;24.30;55.30;;;;;;5033261;28;20021;-68
2022/09/16 04:45:02;;;;;;;2.42;2.08;;;24.30;55.30;;;;;;5033195;28;20060;-68
2022/09/16 04:47:28;;;;;;;2.75;2.10;;;24.30;55.30;;;;;;5032245;28;20091;-68
2022/09/16 04:49:54;;;;;;;2.78;2.28;;;24.30;55.30;;;;;;5033028;28;20564;-68
2022/09/16 04:52:20;;;;;;;3.45;1.90;;;24.30;55.30;;;;;;5033064;28;20108;-68
2022/09/16 04:54:45;;;;;;;2.60;2.30;;;24.30;55.30;;;;;;5032998;28;20037;-67
2022/09/16 04:57:11;;;;;;;2.58;2.10;;;24.30;55.30;;;;;;5032946;28;20026;-67
2022/09/16 04:59:37;;;;;;;2.72;2.10;;;24.30;55.30;;;;;;5032856;28;20100;-68
2022/09/16 05:02:02;;;;;;;3.00;2.28;;;24.30;55.30;;;;;;5032201;28;20168;-68
2022/09/16 05:04:28;;;;;;;2.60;2.03;;;24.30;55.30;;;;;;5032841;28;20025;-67
2022/09/16 05:06:54;;;;;;;2.40;2.00;;;24.30;55.40;;;;;;5031828;28;20146;-67
2022/09/16 05:09:21;;;;;;;2.80;1.90;;;24.30;55.40;;;;;;5005839;28;20507;-67
2022/09/16 05:11:47;;;;;;;2.50;2.15;;;24.30;55.40;;;;;;5032701;28;20026;-67
2022/09/16 05:14:15;;;;;;;2.75;2.08;;;24.30;55.40;;;;;;5031310;28;20468;-67
2022/09/16 05:16:42;;;;;;;3.38;2.08;;;24.30;55.50;;;;;;5032239;28;20037;-67
2022/09/16 05:19:10;;;;;;;2.75;2.08;;;24.30;55.50;;;;;;5032415;28;20032;-67
2022/09/16 05:21:37;;;;;;;2.67;2.13;;;24.30;55.50;;;;;;5031550;28;20117;-67
2022/09/16 05:24:09;;;;;;;2.70;2.00;;;24.30;55.40;;;;;;5006595;28;20425;-66
2022/09/16 05:26:38;;;;;;;2.38;2.00;;;24.30;55.30;;;;;;5032343;28;20025;-66
2022/09/16 05:29:07;;;;;;;2.38;1.98;;;24.30;55.20;;;;;;5014486;28;20128;-67
2022/09/16 05:31:38;;;;;;;2.67;2.10;;;24.40;55.20;;;;;;5013972;28;20037;-67
2022/09/16 05:34:15;;;;;;;2.78;2.05;;;24.40;55.10;;;;;;5031692;28;20025;-67
2022/09/16 05:36:46;;;;;;;2.95;2.03;;;24.50;55.00;;;;;;5031696;28;20036;-66
2022/09/16 05:39:14;;;;;;;2.60;2.10;;;24.50;55.10;;;;;;5031142;28;20113;-67
2022/09/16 05:41:40;;;;;;;2.38;1.85;;;24.50;54.90;;;;;;5014251;28;20504;-66
2022/09/16 05:44:05;;;;;;;2.50;2.00;;;24.60;54.90;;;;;;5032081;28;20029;-67
2022/09/16 05:46:31;;;;;;;2.53;2.00;;;24.60;55.00;;;;;;5031841;28;20032;-66
2022/09/16 05:48:57;;;;;;;2.75;2.00;;;24.60;54.80;;;;;;5031786;28;20109;-66
2022/09/16 05:51:24;;;;;;;2.50;2.03;;;24.60;54.80;;;;;;5031982;28;20045;-67
2022/09/16 05:53:52;;;;;;;2.70;1.85;;;24.60;54.90;;;;;;5031854;28;20030;-66
2022/09/16 05:56:19;;;;;;;2.70;2.10;;;24.70;54.70;;;;;;5031823;28;20038;-67
2022/09/16 05:58:45;;;;;;;2.55;2.10;;;24.70;54.70;;;;;;5031744;28;20029;-66
2022/09/16 06:01:15;;;;;;;2.25;1.90;;;24.80;54.70;;;;;;5031351;28;20037;-66
2022/09/16 06:03:42;;;;;;;3.60;2.30;;;24.70;54.60;;;;;;5031788;28;20083;-66
2022/09/16 06:06:24;;;;;;;2.85;2.10;;;24.80;54.50;;;;;;5030843;28;20033;-66
2022/09/16 06:08:51;;;;;;;2.70;2.05;;;24.80;54.50;;;;;;5030932;28;20040;-66
2022/09/16 06:11:17;;;;;;;2.30;1.90;;;24.80;54.40;;;;;;5030511;28;20061;-67
2022/09/16 06:13:43;;;;;;;2.67;2.10;;;24.80;54.40;;;;;;5031502;28;20428;-66
2022/09/16 06:16:09;;;;;;;2.60;2.20;;;24.90;54.40;;;;;;5031514;28;20053;-66
2022/09/16 06:18:36;;;;;;;2.30;1.90;;;24.90;54.40;;;;;;5031554;28;20484;-66
2022/09/16 06:21:08;;;;;;;2.58;2.10;;;24.90;54.40;;;;;;5031405;28;20097;-66
2022/09/16 06:23:35;;;;;;;2.38;1.90;;;24.90;54.30;;;;;;5031383;28;20021;-66
2022/09/16 06:26:07;;;;;;;2.65;2.08;;;24.90;54.20;;;;;;5031135;28;20117;-67
2022/09/16 06:28:33;;;;;;;2.38;1.83;;;25.00;54.80;;;;;;5030580;28;20083;-66
2022/09/16 06:31:05;;;;;;;2.63;2.03;;;25.00;54.30;;;;;;5030824;28;20412;-67
2022/09/16 06:33:31;;;;;;;2.80;2.00;;;25.00;54.20;;;;;;5006254;28;20473;-68
2022/09/16 06:35:57;;;;;;;3.08;2.13;;;25.00;54.20;;;;;;5031222;28;20102;-67
2022/09/16 06:38:23;;;;;;;2.60;2.15;;;25.00;54.00;;;;;;5003224;28;20121;-68
2022/09/16 06:40:49;;;;;;;3.53;2.60;;;25.10;54.50;;;;;;5031141;28;20056;-67
2022/09/16 06:43:15;;;;;;;2.75;2.30;;;25.10;53.90;;;;;;5031098;28;20025;-68
2022/09/16 06:45:41;;;;;;;2.72;2.20;;;25.10;53.80;;;;;;5031073;28;20453;-67
2022/09/16 06:48:06;;;;;;;3.47;2.33;;;25.10;53.90;;;;;;5031075;28;20029;-66
2022/09/16 06:50:32;;;;;;;2.80;2.30;;;25.10;53.80;;;;;;5031050;28;20033;-67
2022/09/16 06:52:58;;;;;;;2.58;2.22;;;25.10;53.90;;;;;;5030875;28;20381;-67
2022/09/16 06:55:24;;;;;;;2.72;2.00;;;25.20;53.90;;;;;;5004570;28;20017;-67
2022/09/16 06:57:50;;;;;;;2.88;2.30;;;25.20;53.90;;;;;;5030823;28;20485;-67
2022/09/16 07:00:15;;;;;;;2.60;2.00;;;25.20;53.80;;;;;;5005065;28;20022;-67
2022/09/16 07:02:41;;;;;;;2.95;2.15;;;25.20;53.70;;;;;;5005412;28;20030;-67
2022/09/16 07:05:07;;;;;;;2.47;1.98;;;25.20;53.70;;;;;;5030809;28;20099;-68
2022/09/16 07:07:33;;;;;;;2.80;2.38;;;25.20;53.70;;;;;;5030769;28;20041;-67
2022/09/16 07:09:59;;;;;;;3.47;2.45;;;25.30;53.70;;;;;;5030302;28;20420;-67
2022/09/16 07:12:24;;;;;;;2.65;2.05;;;25.20;53.50;;;;;;5030773;28;20119;-67
2022/09/16 07:14:50;;;;;;;2.40;1.90;;;25.30;54.10;;;;;;5030640;28;20103;-68
2022/09/16 07:17:16;;;;;;;2.75;2.20;;;25.30;53.50;;;;;;5021110;28;20018;-68
2022/09/16 07:19:41;;;;;;;2.58;1.98;;;25.30;53.50;;;;;;5013002;28;20037;-67
2022/09/16 07:22:07;;;;;;;2.83;2.20;;;25.30;53.50;;;;;;5030631;28;20467;-68
2022/09/16 07:24:32;;;;;;;2.85;2.20;;;25.30;53.50;;;;;;5030478;28;20469;-67
2022/09/16 07:26:58;;;;;;;2.30;1.98;;;25.40;53.50;;;;;;5031306;28;20473;-67
2022/09/16 07:29:24;;;;;;;2.38;1.85;;;25.30;53.40;;;;;;5031551;28;20129;-68
2022/09/16 07:31:50;;;;;;;2.45;1.95;;;25.40;53.50;;;;;;5030801;28;20029;-68
2022/09/16 07:34:15;;;;;;;2.97;2.08;;;25.40;53.40;;;;;;5012952;28;20025;-67
2022/09/16 07:36:43;;;;;;;2.78;2.10;;;25.40;54.00;;;;;;5030645;28;20022;-67
2022/09/16 07:39:12;;;;;;;2.97;2.10;;;25.40;53.40;;;;;;5033830;28;20029;-66
2022/09/16 07:41:40;;;;;;;2.53;2.10;;;25.40;53.40;;;;;;5034540;28;20034;-67
2022/09/16 07:44:09;;;;;;;2.60;2.10;;;25.40;53.40;;;;;;5033778;28;20059;-66
2022/09/16 07:46:35;;;;;;;2.50;2.03;;;25.40;53.30;;;;;;5033633;28;20040;-66
2022/09/16 07:49:03;;;;;;;3.00;2.20;;;25.40;53.30;;;;;;5033222;28;20029;-67
2022/09/16 07:51:30;;;;;;;2.85;2.00;;;25.40;53.30;;;;;;5033336;28;20025;-66
2022/09/16 07:54:02;;;;;;;2.60;1.98;;;25.40;53.30;;;;;;5034001;28;20021;-65
2022/09/16 07:56:33;;;;;;;2.30;1.80;;;25.40;53.30;;;;;;5033191;28;20017;-65
2022/09/16 07:58:59;;;;;;;2.65;1.98;;;25.50;53.30;;;;;;5016042;28;20622;-66
2022/09/16 08:01:25;;;;;;;2.50;2.00;;;25.50;53.30;;;;;;5033487;28;20033;-68
2022/09/16 08:03:51;;;;;;;3.10;2.30;;;25.40;53.20;;;;;;5033981;28;20033;-68
2022/09/16 08:06:20;;;;;;;2.60;1.90;;;25.50;53.30;;;;;;5033814;28;20156;-68
2022/09/16 08:08:46;;;;;;;2.77;2.20;;;25.50;53.30;;;;;;5031703;28;20025;-68
2022/09/16 08:11:13;;;;;;;2.63;2.05;;;25.50;53.30;;;;;;5033796;28;20037;-68
2022/09/16 08:13:40;;;;;;;2.47;2.05;;;25.50;53.20;;;;;;5033733;28;20052;-69
2022/09/16 08:16:09;;;;;;;2.55;2.00;;;25.50;53.20;;;;;;5033571;28;20051;-68
2022/09/16 08:18:35;;;;;;;2.50;2.00;;;25.50;53.20;;;;;;5033579;28;20080;-67
2022/09/16 08:21:22;;;;;;;2.30;1.77;;;25.50;53.30;;;;;;5033722;28;20030;-66
2022/09/16 08:23:48;;;;;;;2.30;2.08;;;25.50;53.20;;;;;;5033550;28;20036;-67
2022/09/16 08:26:14;;;;;;;3.78;2.00;;;25.50;53.20;;;;;;5033559;28;20029;-66
2022/09/16 08:28:42;;;;;;;2.42;2.00;;;25.50;53.20;;;;;;5032720;28;20516;-66
2022/09/16 08:31:08;;;;;;;2.42;1.90;;;25.50;53.20;;;;;;5031678;28;20030;-67
2022/09/16 08:33:34;;;;;;;2.63;2.00;;;25.50;53.10;;;;;;5033538;28;20125;-66
2022/09/16 08:36:06;;;;;;;2.42;1.90;;;25.60;53.10;;;;;;5033426;28;20109;-67
2022/09/16 08:38:33;;;;;;;2.30;1.90;;;25.50;53.10;;;;;;5033311;28;20083;-67
2022/09/16 08:41:13;;;;;;;2.45;1.90;;;25.50;53.10;;;;;;5033308;28;20044;-67
2022/09/16 08:43:46;;;;;;;2.20;1.90;;;25.50;53.10;;;;;;5033258;28;20489;-67
2022/09/16 08:46:52;;;;;;;2.40;1.80;;;25.60;53.10;;;;;;5032717;28;20024;-68
2022/09/16 08:49:27;;;;;;;2.78;2.13;;;25.60;53.10;;;;;;5031307;28;20044;-68
2022/09/16 08:51:57;;;;;;;2.97;2.10;;;25.60;53.00;;;;;;5032297;28;20026;-67
2022/09/16 08:54:29;;;;;;;2.50;1.90;;;25.60;53.00;;;;;;5032980;28;20400;-68
2022/09/16 08:56:59;;;;;;;2.30;1.88;;;25.60;53.10;;;;;;5032590;28;20033;-67
2022/09/16 08:59:27;;;;;;;3.25;2.33;;;25.60;53.00;;;;;;5032888;28;20049;-68
2022/09/16 09:02:12;;;;;;;2.63;1.90;;;25.60;53.00;;;;;;5031321;28;20041;-68
2022/09/16 09:04:38;;;;;;;2.60;2.00;;;25.60;53.00;;;;;;5032910;28;20107;-70
2022/09/16 09:07:18;;;;;;;2.92;2.03;;;25.60;53.00;;;;;;5032770;28;20434;-68
2022/09/16 09:09:56;;;;;;;2.65;1.83;;;25.60;53.00;;;;;;5032511;28;20029;-68
2022/09/16 09:12:37;;;;;;;2.40;1.88;;;25.60;53.00;;;;;;5032306;28;20592;-69
2022/09/16 09:15:29;;;;;;;2.58;1.90;;;25.60;53.00;;;;;;5029751;28;20119;-69
2022/09/16 09:18:08;;;;;;;2.60;2.08;;;25.70;53.00;;;;;;5032185;28;20025;-68
2022/09/16 09:20:54;;;;;;;2.47;1.85;;;25.70;53.00;;;;;;5033267;28;20029;-69
2022/09/16 09:23:28;;;;;;;2.80;1.80;;;25.60;52.90;;;;;;5032306;28;20025;-68
2022/09/16 09:26:01;;;;;;;2.88;2.10;;;25.70;52.90;;;;;;5031537;28;20033;-69
2022/09/16 09:28:45;;;;;;;2.50;1.90;;;25.60;52.80;;;;;;5032125;28;20025;-68
2022/09/16 09:31:39;;;;;;;2.58;1.90;;;25.60;52.90;;;;;;5031242;28;20045;-68
2022/09/16 09:34:17;;;;;;;2.30;1.67;;;25.60;52.90;;;;;;5007046;28;20030;-67
2022/09/16 09:36:48;;;;;;;2.13;1.67;;;25.70;52.90;;;;;;5031136;28;20091;-68
2022/09/16 09:39:38;;;;;;;2.60;1.98;;;25.70;52.90;;;;;;5031559;28;20079;-68
2022/09/16 09:42:16;;;;;;;2.40;1.80;;;25.70;52.90;;;;;;5032024;28;20025;-68
2022/09/16 09:44:47;;;;;;;2.17;1.67;;;25.70;53.00;;;;;;5031973;28;20036;-68
2022/09/16 09:47:25;;;;;;;2.28;1.73;;;25.70;52.90;;;;;;5005742;28;20028;-68
2022/09/16 09:49:55;;;;;;;2.00;1.60;;;25.70;53.10;;;;;;5005631;28;20026;-68
2022/09/16 09:52:38;;;;;;;2.33;1.70;;;25.70;53.10;;;;;;5030391;28;20370;-68
2022/09/16 09:55:19;;;;;;;3.25;1.77;;;25.70;53.00;;;;;;5005859;28;20032;-69
2022/09/16 09:58:17;;;;;;;2.28;1.88;;;25.70;52.90;;;;;;5031797;28;20026;-68
2022/09/16 10:00:43;;;;;;;2.05;1.60;;;25.70;52.80;;;;;;5029944;28;20041;-67
2022/09/16 10:03:17;;;;;;;2.40;1.80;;;25.70;52.80;;;;;;5012781;28;20421;-68
2022/09/16 10:05:44;;;;;;;2.10;1.75;;;25.70;52.80;;;;;;5013463;28;20551;-67
2022/09/16 10:08:36;;;;;;;2.28;1.73;;;25.70;52.80;;;;;;5031525;28;20092;-67
2022/09/16 10:11:15;;;;;;;2.45;1.85;;;25.70;52.80;;;;;;5030245;28;20058;-68
2022/09/16 10:13:48;;;;;;;2.00;1.65;;;25.70;52.80;;;;;;5029561;28;20025;-68
2022/09/16 10:16:17;;;;;;;2.20;1.70;;;25.70;52.80;;;;;;5031342;28;20064;-68
2022/09/16 10:18:43;;;;;;;2.70;1.85;;;25.70;53.00;;;;;;5031580;28;20030;-68
2022/09/16 10:21:15;;;;;;;2.17;1.50;;;25.70;52.90;;;;;;5005510;28;20187;-68
2022/09/16 10:23:51;;;;;;;2.00;1.60;;;25.70;52.90;;;;;;5013328;28;20054;-68
2022/09/16 10:26:19;;;;;;;2.30;1.70;;;25.70;52.80;;;;;;5013345;28;20048;-68
2022/09/16 10:29:03;;;;;;;2.15;1.95;;;25.70;52.80;;;;;;5031307;28;20033;-67
2022/09/16 10:31:35;;;;;;;2.65;1.83;;;25.70;52.80;;;;;;5030240;28;20033;-68
2022/09/16 10:34:03;;;;;;;2.22;1.60;;;25.80;53.00;;;;;;5004950;28;20511;-68
2022/09/16 10:36:33;;;;;;;2.60;1.58;;;25.70;52.90;;;;;;5030991;28;20504;-68
2022/09/16 10:39:01;;;;;;;1.80;1.50;;;25.80;53.10;;;;;;5031228;28;20025;-67
2022/09/16 10:41:33;;;;;;;2.67;1.90;;;25.80;53.30;;;;;;5031174;28;20428;-67
2022/09/16 10:44:03;;;;;;;2.35;1.85;;;25.80;53.10;;;;;;5030947;28;20034;-68
2022/09/16 10:46:29;;;;;;;2.55;1.70;;;25.80;52.80;;;;;;5029639;28;20524;-68
2022/09/16 10:49:07;;;;;;;2.92;1.50;;;25.80;52.70;;;;;;5030985;28;20065;-68
2022/09/16 10:51:33;;;;;;;2.58;1.55;;;25.80;52.60;;;;;;5029450;28;20017;-68
2022/09/16 10:54:01;;;;;;;2.72;1.60;;;25.80;52.60;;;;;;5019085;28;20037;-68
2022/09/16 10:56:45;;;;;;;2.50;1.70;;;25.80;52.70;;;;;;5030976;28;20021;-68
2022/09/16 10:59:12;;;;;;;2.63;1.80;;;25.80;52.70;;;;;;5012808;28;20032;-69
2022/09/16 11:02:03;;;;;;;2.03;1.50;;;25.80;52.70;;;;;;5029699;28;20128;-69
2022/09/16 11:05:01;;;;;;;2.03;1.33;;;25.80;52.60;;;;;;5030851;28;20032;-68
2022/09/16 11:07:48;;;;;;;2.03;1.50;;;25.80;52.80;;;;;;5030004;28;20065;-69
2022/09/16 11:10:56;;;;;;;3.35;1.70;;;25.80;52.70;;;;;;5028805;28;20036;-68
2022/09/16 11:13:27;;;;;;;2.47;1.70;;;25.80;52.80;;;;;;5032627;28;20025;-69
2022/09/16 11:16:16;;;;;;;3.00;1.65;;;25.80;52.70;;;;;;5033987;28;20485;-68
2022/09/16 11:19:06;;;;;;;2.33;1.50;;;25.80;52.60;;;;;;5022761;28;20042;-69
2022/09/16 11:21:58;;;;;;;2.53;1.70;;;25.80;52.50;;;;;;5008141;28;20155;-68
2022/09/16 11:24:42;;;;;;;3.50;1.67;;;25.70;52.40;;;;;;5033758;28;20365;-68
2022/09/16 11:27:23;;;;;;;2.00;1.50;;;25.70;52.40;;;;;;5033275;28;20548;-68
2022/09/16 11:30:09;;;;;;;1.73;1.30;;;25.70;52.40;;;;;;5023569;28;20397;-69
2022/09/16 11:33:01;;;;;;;2.17;1.40;;;25.70;52.40;;;;;;5051352;28;20037;-68
2022/09/16 11:35:33;;;;;;;2.60;1.55;;;25.70;52.50;;;;;;5053020;28;20381;-68
2022/09/16 11:38:41;;;;;;;2.88;1.60;;;25.70;52.50;;;;;;5043786;28;20510;-68
2022/09/16 11:41:35;;;;;;;2.50;1.40;;;25.70;52.40;;;;;;4980458;28;20098;-68
2022/09/16 11:44:23;;;;;;;2.33;1.45;;;25.60;52.40;;;;;;5053797;28;20022;-69
2022/09/16 11:47:15;;;;;;;2.33;1.60;;;25.60;52.40;;;;;;5053757;28;20021;-68
2022/09/16 11:50:00;;;;;;;2.70;1.70;;;25.60;52.40;;;;;;5053749;28;20460;-69
2022/09/16 11:52:38;;;;;;;2.88;1.63;;;25.60;52.40;;;;;;5053938;28;20124;-68
2022/09/16 11:55:25;;;;;;;2.75;1.60;;;25.50;52.40;;;;;;5053300;28;20377;-68
2022/09/16 11:57:58;;;;;;;2.25;1.55;;;25.60;52.40;;;;;;5052570;28;20361;-68
2022/09/16 12:00:24;;;;;;;2.35;1.42;;;25.50;52.40;;;;;;5052685;28;20191;-68
2022/09/16 12:02:56;;;;;;;2.10;1.50;;;25.50;52.40;;;;;;5053239;28;20135;-68
2022/09/16 12:05:35;;;;;;;3.67;1.60;;;25.50;52.40;;;;;;5051085;28;20044;-67
2022/09/16 12:08:21;;;;;;;;;;;25.50;52.40;;;;;;5052776;28;20036;-68
2022/09/16 12:11:08;;;;;;;2.65;1.50;;;25.40;52.40;;;;;;5033359;28;19916;-68
2022/09/16 12:13:45;;;;;;;2.05;1.20;;;25.40;52.40;;;;;;5052405;28;20100;-68
2022/09/16 12:16:13;;;;;;;3.03;1.42;;;25.40;52.50;;;;;;5052985;28;20041;-69
2022/09/16 12:18:43;;;;;;;2.15;1.30;;;25.40;52.50;;;;;;5032408;28;20132;-68
2022/09/16 12:21:24;;;;;;;3.00;1.63;;;25.30;52.50;;;;;;5035044;28;20540;-68
2022/09/16 12:24:23;;;;;;;1.83;1.38;;;25.30;52.50;;;;;;5052110;28;20477;-69
2022/09/16 12:27:01;;;;;;;2.33;1.40;;;25.30;52.60;;;;;;5033949;28;20032;-67
2022/09/16 12:29:32;;;;;;;3.63;1.40;;;25.30;52.60;;;;;;5051822;28;20527;-67
2022/09/16 12:32:04;;;;;;;1.95;1.30;;;25.20;52.60;;;;;;5051572;28;20393;-67
2022/09/16 12:34:42;;;;;;;1.98;1.17;;;25.20;52.60;;;;;;5051928;28;20024;-69
2022/09/16 12:37:25;;;;;;;2.20;1.40;;;25.20;52.60;;;;;;5051744;28;20532;-68
2022/09/16 12:39:51;;;;;;;2.25;1.30;;;25.20;52.60;;;;;;5052674;28;20173;-68
2022/09/16 12:42:35;;;;;;;2.53;1.23;;;25.10;52.60;;;;;;5051976;28;20029;-68
2022/09/16 12:45:31;;;;;;;3.60;1.40;;;25.10;52.70;;;;;;5052116;28;20499;-68
2022/09/16 12:48:17;;;;;;;2.85;1.35;;;25.10;52.70;;;;;;5052145;28;20108;-67
2022/09/16 12:50:59;;;;;;;2.47;1.30;;;25.10;52.70;;;;;;5052305;28;20032;-67
2022/09/16 12:54:01;;;;;;;2.63;1.27;;;25.10;52.80;;;;;;5052181;28;20036;-68
2022/09/16 12:57:03;;;;;;;2.17;1.25;;;25.10;52.80;;;;;;5032514;28;20022;-67
2022/09/16 12:59:56;;;;;;;1.83;1.17;;;25.00;53.20;;;;;;5033547;28;20112;-67
2022/09/16 13:02:27;;;;;;;2.15;1.23;;;25.00;52.70;;;;;;5032979;28;20588;-68
2022/09/16 13:04:56;;;;;;;1.65;1.02;;;25.00;52.80;;;;;;5032192;28;20029;-67
2022/09/16 13:07:26;;;;;;;1.63;1.20;;;25.00;52.80;;;;;;5032602;28;20474;-68
2022/09/16 13:10:04;;;;;;;2.08;1.15;;;24.90;52.80;;;;;;5014977;28;20048;-68
2022/09/16 13:12:31;;;;;;;2.80;1.60;;;24.90;52.80;;;;;;5032614;28;20124;-67
2022/09/16 13:15:03;;;;;;;1.38;1.10;;;24.90;52.80;;;;;;5032451;28;20461;-68
2022/09/16 13:17:30;;;;;;;1.63;1.02;;;24.90;52.90;;;;;;5032634;28;20052;-67
2022/09/16 13:20:05;;;;;;;2.53;1.15;;;24.90;52.90;;;;;;5013106;28;20084;-68